Zanesville Municipal Airport
KZZV : now visible

Airfield :











YOU CAN JOIN US ON...

 
LOGIN :

Register | Disclaimer

   EN    FR    IT 

 









Legend :    VFR   Marginal VFR   IFR   Intensive IFR   Very Intensive IFR
Visi :
Ceiling :
>= 8 km
>= 3000ft
5 to 8 km
1000 to 3000 ft
1500m to 5 km
500 to 1000 ft
800 to 1500m
200 to 500 ft
< 800m
< 200 ft
Symbols :   Thunderstorms  Fog  Heavy snow  Heavy precipitations  Wind > 20 kt






- Airport Elevation : 900 ft


KZZV - Zanesville Municipal

CURRENT METAR :
  • 180653Z AUTO 17011KT 10SM FEW100 09/01 A2992 RMK AO2 SLP132 T00940006

EXPIRED METARs :
  • 180553Z AUTO 16013KT 10SM SCT047 BKN120 09/00 A2992 RMK AO2 SLP133 60000 T00890000 10089 20061 56028
  • 180453Z AUTO 15007KT 10SM SCT075 BKN095 07/M02 A2993 RMK AO2 RAE01 SLP140 P0000 T00671022 401001067

TAF KZZV
Valid from the 18 at 06:00 until the 19 at 06:00 UTC


180520Z 1806/1906 17010KT P6SM -SHRA OVC050 WS020/19045KT
FM180900 19011G19KT P6SM -SHRA OVC025 WS020/21040KT
FM181200 19011G17KT 4SM -SHRA OVC016
FM181400 20009KT 4SM -SHRA BR OVC008
FM181900 29008KT 5SM BR VCSH OVC015
FM182200 31009KT P6SM OVC022



MET'MAP, your aeronautical weather chart ! - Copyright ORBIFLY December 2007 - Disclaimer

ORBIFLY MET'MAP TEAM :

Programming & Development : Alexandra Zaïnal
Concept & original design : Baudouin d'Aumeries
Assistance for programming : Marc-Olivier Méhu
Technical & hardware support : Manuel Goepfert

Contact : metmap@orbifly.com




SOURCES & CREDITS :

   NOAA       Earth
Advisory